Airport ID:CXW
Update Time (UTC):18/05/2022 03:39
Wind Speed (Knots):5
Wind Direction (Magnetic):150
Temperature (°C):22
Dew Point (°C):16
Humidity (%):70
Altimeter (inHg):29.93
Density Altitude (Feet):1400
Visibility:10+
Clouds (Hundreds of feet):BKN034 OVC043
Present Weather:
METAR:METAR CXW 180335Z AUTO 14005KT 10SM BKN034 OVC043 22/16 A2993 RMK A01

The data displayed is for advisory purposes only and is not to be used for flight planning or operations.